Melbourne, Iowa
Current Conditions -  °F | °C
As of 7:53 AM on Wednesday 26 Nov 2014 (Local Time) from KMIW Reporting Station
Light Snow Light Snow  
Wind Chill: 14°   Ceiling: 1400
Heat Index: 26°   Visibility: 1.2mi
Dew Point: 22°   Wind: 14mph
Humidity: 84%   Direction: 100°E
Pressure: 29.94"   Gusts: NA
Location:  41.94°N, 93.1°W
Report Text: KMIW 261353Z AUTO 10012KT 1 1/4SM -SN BR OVC014 M03/M06 A2994 RMK AO2 SNB27 SLP151 P0000 T10331056
Loading
Personal Weather Stations






























Interactive Weather Map New forecast layout! Learn more

10-Day Weather Forecast

Advertisements
Track Severe Weather on mobile